Boo Sonier — WDG3281 — position and weather

sailwx.info

Track history (hours):
 
Tides and Currents Weather Stations Pressure Air Temp Water Temp Dewpoint Dewpoint Depression Visibility Wind Speed Wind Dir Waves Ship Positions

Boo Sonier

Owner: LeBeouf Bros. Towing, LLC, Houma, LA. More information available from US FCC via Universal Licensing System and Coast Guard Vessel Documentation Center.

Last reported at 2016-Jun-28 20:31 UTC. Time now 2016-Jun-28 20:40 UTC.
Position N 29°56' W 090°00'.

Length 21 m.

Type: Tug. MMSI: 367524420.

Date/timePositionNaut miles runAvg speedWind from/ knotsBaromVisibWave heightAir tempDewpointWater temp
2016-Jun-28 20:31N 29°56' W 090°00'0 0.0
2016-Jun-28 19:31N 29°56' W 090°00'0 0.0
2016-Jun-28 18:31N 29°56' W 090°00'0 0.0
2016-Jun-28 17:31N 29°56' W 090°00'0 0.0
2016-Jun-28 16:31N 29°56' W 090°00'0 0.0
2016-Jun-28 15:31N 29°56' W 090°00'0 0.0
2016-Jun-28 14:31N 29°56' W 090°00'0 0.0
2016-Jun-28 13:31N 29°56' W 090°00'0 0.0
2016-Jun-28 12:31N 29°56' W 090°00'0 0.0
2016-Jun-28 11:31N 29°56' W 090°00'0 0.0
2016-Jun-28 10:28N 29°56' W 090°00'0 0.0
2016-Jun-28 09:31N 29°56' W 090°00'0 0.0
2016-Jun-28 08:31N 29°56' W 090°00'0 0.0
2016-Jun-28 07:31N 29°56' W 090°00'0 0.0
2016-Jun-28 06:31N 29°56' W 090°00'0 0.0
2016-Jun-28 04:31N 29°56' W 090°00'0 0.0
2016-Jun-28 03:19N 29°56' W 090°00'0 0.0
2016-Jun-28 02:31N 29°56' W 090°00'0 0.0
2016-Jun-28 01:28N 29°56' W 090°00'0 0.0
2016-Jun-28 00:25N 29°56' W 090°00'0 0.0
2016-Jun-27 23:22N 29°56' W 090°00'0 0.0
2016-Jun-27 22:28N 29°56' W 090°00'0 0.0
2016-Jun-27 21:31N 29°56' W 090°00'0 0.1
2016-Jun-27 20:32N 29°56' W 090°00'0 0.0
2016-Jun-27 19:32N 29°56' W 090°00'0 0.0
2016-Jun-27 18:32N 29°56' W 090°00'0 0.0
2016-Jun-27 17:32N 29°56' W 090°00'0 0.0
2016-Jun-27 16:32N 29°56' W 090°00'0 0.0
2016-Jun-27 15:32N 29°56' W 090°00'0 0.0
2016-Jun-27 14:32N 29°56' W 090°00'0 0.0
2016-Jun-27 13:32N 29°56' W 090°00'0 0.0
2016-Jun-27 12:32N 29°56' W 090°00'0 0.0
2016-Jun-27 11:32N 29°56' W 090°00'0 0.0
2016-Jun-27 10:32N 29°56' W 090°00'2 2.4
2016-Jun-27 09:33N 29°55' W 089°58'1 0.7
2016-Jun-27 08:33N 29°55' W 089°59'0 0.0
2016-Jun-27 07:30N 29°55' W 089°59'0 0.0
2016-Jun-27 06:33N 29°55' W 089°59'0 0.0
2016-Jun-27 05:33N 29°55' W 089°59'0 0.0
2016-Jun-27 04:33N 29°55' W 089°59'0 0.0
2016-Jun-27 03:33N 29°55' W 089°59'3 2.9
2016-Jun-27 02:33N 29°52' W 090°01'5 5.0
2016-Jun-27 01:33N 29°48' W 090°04'4 3.6
2016-Jun-27 00:33N 29°46' W 090°07'21 4.2
2016-Jun-26 19:28N 29°33' W 090°27'5 5.3
2016-Jun-26 18:33N 29°34' W 090°33'5 4.6
2016-Jun-26 17:33N 29°35' W 090°38'4 4.0
2016-Jun-26 16:31N 29°37' W 090°42'0 0.1
2016-Jun-26 15:32N 29°37' W 090°42'0 0.0
2016-Jun-26 14:32N 29°37' W 090°42'0 0.0
2016-Jun-26 13:32N 29°37' W 090°42'0 0.0
2016-Jun-26 12:32N 29°37' W 090°42'0 0.0
2016-Jun-26 11:32N 29°37' W 090°42'0 0.0
2016-Jun-26 10:32N 29°37' W 090°42'0 0.0
2016-Jun-26 09:32N 29°37' W 090°42'0 0.0
2016-Jun-26 08:32N 29°37' W 090°42'0 0.0
2016-Jun-26 07:32N 29°37' W 090°42'0 0.0
2016-Jun-26 06:32N 29°37' W 090°42'0 0.0
2016-Jun-26 05:32N 29°37' W 090°42'0 0.0
2016-Jun-26 04:32N 29°37' W 090°42'0 0.0
2016-Jun-26 03:32N 29°37' W 090°42'0 0.0
2016-Jun-26 02:32N 29°37' W 090°42'0 0.0
2016-Jun-26 01:32N 29°37' W 090°42'0 0.0
2016-Jun-26 00:32N 29°37' W 090°42'0 0.0
2016-Jun-25 23:32N 29°37' W 090°42'0 0.0
2016-Jun-25 22:32N 29°37' W 090°42'0 0.0
2016-Jun-25 21:32N 29°37' W 090°42'0 0.0
2016-Jun-25 20:32N 29°37' W 090°42'0 0.0
2016-Jun-25 19:32N 29°37' W 090°42'0 0.0
2016-Jun-25 18:32N 29°37' W 090°42'0 0.0
2016-Jun-25 17:33N 29°37' W 090°42'0 0.4
2016-Jun-25 16:31N 29°37' W 090°41'5 4.8
2016-Jun-25 15:33N 29°35' W 090°37'1 0.8
2016-Jun-25 14:29N 29°35' W 090°36'6 5.8
2016-Jun-25 13:31N 29°34' W 090°29'22 4.9
2016-Jun-25 09:06N 29°45' W 090°08'4 4.7
2016-Jun-25 08:10N 29°47' W 090°04'0 0.2
2016-Jun-25 06:05N 29°48' W 090°04'0 0.6
2016-Jun-25 05:33N 29°48' W 090°04'5 4.6
2016-Jun-25 04:33N 29°52' W 090°01'4 3.6
2016-Jun-25 03:27N 29°55' W 089°58'1 1.0
2016-Jun-25 02:32N 29°55' W 089°57'2 1.9
2016-Jun-25 01:34N 29°56' W 089°59'3 3.0
2016-Jun-25 00:33N 29°58' W 090°02'3 2.6
2016-Jun-24 23:33N 29°60' W 089°59'0 0.1
2016-Jun-24 22:29N 29°60' W 089°59'0 0.0
2016-Jun-24 21:23N 29°60' W 089°59'0 0.0
2016-Jun-24 20:23N 29°60' W 089°59'0 0.0
2016-Jun-24 19:29N 29°60' W 089°59'0 0.0
2016-Jun-24 18:29N 29°60' W 089°59'0 0.0
2016-Jun-24 17:23N 29°60' W 089°59'0 0.0
2016-Jun-24 16:29N 29°60' W 089°59'0 0.0
2016-Jun-24 15:29N 29°60' W 089°59'0 0.0
2016-Jun-24 14:29N 29°60' W 089°59'0 0.0
2016-Jun-24 13:29N 29°60' W 089°59'0 0.0
2016-Jun-24 12:23N 29°60' W 089°59'0 0.0
2016-Jun-24 11:29N 29°60' W 089°59'0 0.0
2016-Jun-24 10:23N 29°60' W 089°59'0 0.0
2016-Jun-24 09:29N 29°60' W 089°59'0 0.0
2016-Jun-24 08:17N 29°60' W 089°59'0 0.0
2016-Jun-24 07:29N 29°60' W 089°59'0 0.0
2016-Jun-24 04:29N 29°60' W 089°59'0 0.0
2016-Jun-24 03:29N 29°60' W 089°59'0 0.0
2016-Jun-24 02:23N 29°60' W 089°59'0 0.0
2016-Jun-24 01:29N 29°60' W 089°59'0 0.0
2016-Jun-24 00:29N 29°60' W 089°59'2 2.2
2016-Jun-23 23:33N 30°00' W 089°57'  
2016-Jun-20 20:13N 29°55' W 089°59'0 0.0
2016-Jun-20 19:31N 29°55' W 089°59'0 0.0
2016-Jun-20 18:31N 29°55' W 089°59'0 0.0
2016-Jun-20 17:31N 29°55' W 089°59'0 0.0
2016-Jun-20 16:31N 29°55' W 089°59'0 0.0
2016-Jun-20 15:25N 29°55' W 089°59'0 0.0
2016-Jun-20 14:28N 29°55' W 089°59'0 0.0
2016-Jun-20 13:31N 29°55' W 089°59'0 0.0
2016-Jun-20 12:31N 29°55' W 089°59'0 0.0
2016-Jun-20 11:31N 29°55' W 089°59'0 0.0
2016-Jun-20 10:31N 29°55' W 089°59'0 0.2
2016-Jun-20 09:33N 29°55' W 089°59'4 3.8
2016-Jun-20 08:33N 29°51' W 090°01'4 4.0
2016-Jun-20 07:29N 29°48' W 090°04'26 4.4
2016-Jun-20 01:26N 29°34' W 090°30'5 5.3
2016-Jun-20 00:31N 29°35' W 090°35'4 4.7
2016-Jun-19 23:33N 29°36' W 090°40'2 1.7
2016-Jun-19 22:31N 29°37' W 090°42'0 0.1
2016-Jun-19 21:31N 29°37' W 090°42'0 0.0
2016-Jun-19 20:31N 29°37' W 090°42'0 0.0
2016-Jun-19 19:31N 29°37' W 090°42'0 0.0
2016-Jun-19 18:31N 29°37' W 090°42'0 0.0
2016-Jun-19 17:31N 29°37' W 090°42'0 0.0
2016-Jun-19 16:31N 29°37' W 090°42'0 0.0
2016-Jun-19 15:31N 29°37' W 090°42'0 0.0
2016-Jun-19 14:31N 29°37' W 090°42'0 0.0
2016-Jun-19 13:31N 29°37' W 090°42'0 0.0
2016-Jun-19 12:31N 29°37' W 090°42'0 0.0
2016-Jun-19 11:31N 29°37' W 090°42'0 0.0
2016-Jun-19 10:31N 29°37' W 090°42'0 0.0
2016-Jun-19 09:31N 29°37' W 090°42'0 0.1
2016-Jun-19 08:33N 29°37' W 090°42'0 0.1
2016-Jun-19 07:32N 29°37' W 090°42'0 0.0
2016-Jun-19 06:32N 29°37' W 090°42'0 0.0
2016-Jun-19 05:32N 29°37' W 090°42'0 0.0
2016-Jun-19 04:32N 29°37' W 090°42'0 0.0
2016-Jun-19 03:32N 29°37' W 090°42'0 0.0
2016-Jun-19 02:32N 29°37' W 090°42'0 0.0
2016-Jun-19 01:32N 29°37' W 090°42'0 0.0
2016-Jun-19 00:32N 29°37' W 090°42'0 0.0
2016-Jun-18 23:32N 29°37' W 090°42'0 0.0
2016-Jun-18 22:32N 29°37' W 090°42'0 0.0
2016-Jun-18 21:32N 29°37' W 090°42'0 0.0
2016-Jun-18 20:32N 29°37' W 090°42'  
Track history (hours):
 
Tides and Currents Weather Stations Pressure Air Temp Water Temp Dewpoint Dewpoint Depression Visibility Wind Speed Wind Dir Waves Ship Positions

Boo Sonier

Owner: LeBeouf Bros. Towing, LLC, Houma, LA. More information available from US FCC via Universal Licensing System and Coast Guard Vessel Documentation Center.

Last reported at 2016-Jun-28 20:31 UTC. Time now 2016-Jun-28 20:40 UTC.
Position N 29°56' W 090°00'.

Length 21 m.

Type: Tug. MMSI: 367524420.

Date/timePositionNaut miles runAvg speedWind from/ knotsBaromVisibWave heightAir tempDewpointWater temp
2016-Jun-28 20:31N 29°56' W 090°00'0 0.0
2016-Jun-28 19:31N 29°56' W 090°00'0 0.0
2016-Jun-28 18:31N 29°56' W 090°00'0 0.0
2016-Jun-28 17:31N 29°56' W 090°00'0 0.0
2016-Jun-28 16:31N 29°56' W 090°00'0 0.0
2016-Jun-28 15:31N 29°56' W 090°00'0 0.0
2016-Jun-28 14:31N 29°56' W 090°00'0 0.0
2016-Jun-28 13:31N 29°56' W 090°00'0 0.0
2016-Jun-28 12:31N 29°56' W 090°00'0 0.0
2016-Jun-28 11:31N 29°56' W 090°00'0 0.0
2016-Jun-28 10:28N 29°56' W 090°00'0 0.0
2016-Jun-28 09:31N 29°56' W 090°00'0 0.0
2016-Jun-28 08:31N 29°56' W 090°00'0 0.0
2016-Jun-28 07:31N 29°56' W 090°00'0 0.0
2016-Jun-28 06:31N 29°56' W 090°00'0 0.0
2016-Jun-28 04:31N 29°56' W 090°00'0 0.0
2016-Jun-28 03:19N 29°56' W 090°00'0 0.0
2016-Jun-28 02:31N 29°56' W 090°00'0 0.0
2016-Jun-28 01:28N 29°56' W 090°00'0 0.0
2016-Jun-28 00:25N 29°56' W 090°00'0 0.0
2016-Jun-27 23:22N 29°56' W 090°00'0 0.0
2016-Jun-27 22:28N 29°56' W 090°00'0 0.0
2016-Jun-27 21:31N 29°56' W 090°00'0 0.1
2016-Jun-27 20:32N 29°56' W 090°00'0 0.0
2016-Jun-27 19:32N 29°56' W 090°00'0 0.0
2016-Jun-27 18:32N 29°56' W 090°00'0 0.0
2016-Jun-27 17:32N 29°56' W 090°00'0 0.0
2016-Jun-27 16:32N 29°56' W 090°00'0 0.0
2016-Jun-27 15:32N 29°56' W 090°00'0 0.0
2016-Jun-27 14:32N 29°56' W 090°00'0 0.0
2016-Jun-27 13:32N 29°56' W 090°00'0 0.0
2016-Jun-27 12:32N 29°56' W 090°00'0 0.0
2016-Jun-27 11:32N 29°56' W 090°00'0 0.0
2016-Jun-27 10:32N 29°56' W 090°00'2 2.4
2016-Jun-27 09:33N 29°55' W 089°58'1 0.7
2016-Jun-27 08:33N 29°55' W 089°59'0 0.0
2016-Jun-27 07:30N 29°55' W 089°59'0 0.0
2016-Jun-27 06:33N 29°55' W 089°59'0 0.0
2016-Jun-27 05:33N 29°55' W 089°59'0 0.0
2016-Jun-27 04:33N 29°55' W 089°59'0 0.0
2016-Jun-27 03:33N 29°55' W 089°59'3 2.9
2016-Jun-27 02:33N 29°52' W 090°01'5 5.0
2016-Jun-27 01:33N 29°48' W 090°04'4 3.6
2016-Jun-27 00:33N 29°46' W 090°07'21 4.2
2016-Jun-26 19:28N 29°33' W 090°27'5 5.3
2016-Jun-26 18:33N 29°34' W 090°33'5 4.6
2016-Jun-26 17:33N 29°35' W 090°38'4 4.0
2016-Jun-26 16:31N 29°37' W 090°42'0 0.1
2016-Jun-26 15:32N 29°37' W 090°42'0 0.0
2016-Jun-26 14:32N 29°37' W 090°42'0 0.0
2016-Jun-26 13:32N 29°37' W 090°42'0 0.0
2016-Jun-26 12:32N 29°37' W 090°42'0 0.0
2016-Jun-26 11:32N 29°37' W 090°42'0 0.0
2016-Jun-26 10:32N 29°37' W 090°42'0 0.0
2016-Jun-26 09:32N 29°37' W 090°42'0 0.0
2016-Jun-26 08:32N 29°37' W 090°42'0 0.0
2016-Jun-26 07:32N 29°37' W 090°42'0 0.0
2016-Jun-26 06:32N 29°37' W 090°42'0 0.0
2016-Jun-26 05:32N 29°37' W 090°42'0 0.0
2016-Jun-26 04:32N 29°37' W 090°42'0 0.0
2016-Jun-26 03:32N 29°37' W 090°42'0 0.0
2016-Jun-26 02:32N 29°37' W 090°42'0 0.0
2016-Jun-26 01:32N 29°37' W 090°42'0 0.0
2016-Jun-26 00:32N 29°37' W 090°42'0 0.0
2016-Jun-25 23:32N 29°37' W 090°42'0 0.0
2016-Jun-25 22:32N 29°37' W 090°42'0 0.0
2016-Jun-25 21:32N 29°37' W 090°42'0 0.0
2016-Jun-25 20:32N 29°37' W 090°42'0 0.0
2016-Jun-25 19:32N 29°37' W 090°42'0 0.0
2016-Jun-25 18:32N 29°37' W 090°42'0 0.0
2016-Jun-25 17:33N 29°37' W 090°42'0 0.4
2016-Jun-25 16:31N 29°37' W 090°41'5 4.8
2016-Jun-25 15:33N 29°35' W 090°37'1 0.8
2016-Jun-25 14:29N 29°35' W 090°36'6 5.8
2016-Jun-25 13:31N 29°34' W 090°29'22 4.9
2016-Jun-25 09:06N 29°45' W 090°08'4 4.7
2016-Jun-25 08:10N 29°47' W 090°04'0 0.2
2016-Jun-25 06:05N 29°48' W 090°04'0 0.6
2016-Jun-25 05:33N 29°48' W 090°04'5 4.6
2016-Jun-25 04:33N 29°52' W 090°01'4 3.6
2016-Jun-25 03:27N 29°55' W 089°58'1 1.0
2016-Jun-25 02:32N 29°55' W 089°57'2 1.9
2016-Jun-25 01:34N 29°56' W 089°59'3 3.0
2016-Jun-25 00:33N 29°58' W 090°02'3 2.6
2016-Jun-24 23:33N 29°60' W 089°59'0 0.1
2016-Jun-24 22:29N 29°60' W 089°59'0 0.0
2016-Jun-24 21:23N 29°60' W 089°59'0 0.0
2016-Jun-24 20:23N 29°60' W 089°59'0 0.0
2016-Jun-24 19:29N 29°60' W 089°59'0 0.0
2016-Jun-24 18:29N 29°60' W 089°59'0 0.0
2016-Jun-24 17:23N 29°60' W 089°59'0 0.0
2016-Jun-24 16:29N 29°60' W 089°59'0 0.0
2016-Jun-24 15:29N 29°60' W 089°59'0 0.0
2016-Jun-24 14:29N 29°60' W 089°59'0 0.0
2016-Jun-24 13:29N 29°60' W 089°59'0 0.0
2016-Jun-24 12:23N 29°60' W 089°59'0 0.0
2016-Jun-24 11:29N 29°60' W 089°59'0 0.0
2016-Jun-24 10:23N 29°60' W 089°59'0 0.0
2016-Jun-24 09:29N 29°60' W 089°59'0 0.0
2016-Jun-24 08:17N 29°60' W 089°59'0 0.0
2016-Jun-24 07:29N 29°60' W 089°59'0 0.0
2016-Jun-24 04:29N 29°60' W 089°59'0 0.0
2016-Jun-24 03:29N 29°60' W 089°59'0 0.0
2016-Jun-24 02:23N 29°60' W 089°59'0 0.0
2016-Jun-24 01:29N 29°60' W 089°59'0 0.0
2016-Jun-24 00:29N 29°60' W 089°59'2 2.2
2016-Jun-23 23:33N 30°00' W 089°57'  
2016-Jun-20 20:13N 29°55' W 089°59'0 0.0
2016-Jun-20 19:31N 29°55' W 089°59'0 0.0
2016-Jun-20 18:31N 29°55' W 089°59'0 0.0
2016-Jun-20 17:31N 29°55' W 089°59'0 0.0
2016-Jun-20 16:31N 29°55' W 089°59'0 0.0
2016-Jun-20 15:25N 29°55' W 089°59'0 0.0
2016-Jun-20 14:28N 29°55' W 089°59'0 0.0
2016-Jun-20 13:31N 29°55' W 089°59'0 0.0
2016-Jun-20 12:31N 29°55' W 089°59'0 0.0
2016-Jun-20 11:31N 29°55' W 089°59'0 0.0
2016-Jun-20 10:31N 29°55' W 089°59'0 0.2
2016-Jun-20 09:33N 29°55' W 089°59'4 3.8
2016-Jun-20 08:33N 29°51' W 090°01'4 4.0
2016-Jun-20 07:29N 29°48' W 090°04'26 4.4
2016-Jun-20 01:26N 29°34' W 090°30'5 5.3
2016-Jun-20 00:31N 29°35' W 090°35'4 4.7
2016-Jun-19 23:33N 29°36' W 090°40'2 1.7
2016-Jun-19 22:31N 29°37' W 090°42'0 0.1
2016-Jun-19 21:31N 29°37' W 090°42'0 0.0
2016-Jun-19 20:31N 29°37' W 090°42'0 0.0
2016-Jun-19 19:31N 29°37' W 090°42'0 0.0
2016-Jun-19 18:31N 29°37' W 090°42'0 0.0
2016-Jun-19 17:31N 29°37' W 090°42'0 0.0
2016-Jun-19 16:31N 29°37' W 090°42'0 0.0
2016-Jun-19 15:31N 29°37' W 090°42'0 0.0
2016-Jun-19 14:31N 29°37' W 090°42'0 0.0
2016-Jun-19 13:31N 29°37' W 090°42'0 0.0
2016-Jun-19 12:31N 29°37' W 090°42'0 0.0
2016-Jun-19 11:31N 29°37' W 090°42'0 0.0
2016-Jun-19 10:31N 29°37' W 090°42'0 0.0
2016-Jun-19 09:31N 29°37' W 090°42'0 0.1
2016-Jun-19 08:33N 29°37' W 090°42'0 0.1
2016-Jun-19 07:32N 29°37' W 090°42'0 0.0
2016-Jun-19 06:32N 29°37' W 090°42'0 0.0
2016-Jun-19 05:32N 29°37' W 090°42'0 0.0
2016-Jun-19 04:32N 29°37' W 090°42'0 0.0
2016-Jun-19 03:32N 29°37' W 090°42'0 0.0
2016-Jun-19 02:32N 29°37' W 090°42'0 0.0
2016-Jun-19 01:32N 29°37' W 090°42'0 0.0
2016-Jun-19 00:32N 29°37' W 090°42'0 0.0
2016-Jun-18 23:32N 29°37' W 090°42'0 0.0
2016-Jun-18 22:32N 29°37' W 090°42'0 0.0
2016-Jun-18 21:32N 29°37' W 090°42'0 0.0
2016-Jun-18 20:32N 29°37' W 090°42'  

Dump ship's entire track history